createdAt,value
2017-05-20T21:45:52.233Z,66.60
2017-05-20T21:48:20.458Z,69.60
2017-05-20T21:50:47.937Z,69.50
2017-05-20T21:53:16.180Z,69.70
2017-05-20T21:55:44.418Z,69.30
2017-05-20T21:58:12.651Z,69.50
2017-05-20T22:00:40.883Z,70.10
2017-05-20T22:03:09.148Z,69.40
2017-05-20T22:05:37.580Z,69.20
2017-05-20T22:08:05.866Z,69.20
2017-05-20T22:10:34.106Z,69.40
2017-05-20T22:13:02.375Z,69.30
2017-05-20T22:15:30.636Z,69.60
2017-05-20T22:17:59.021Z,69.50
2017-05-20T22:20:29.258Z,69.90
2017-05-20T22:22:57.482Z,69.60
2017-05-20T22:25:25.736Z,70.80
2017-05-20T22:27:53.963Z,71.20
2017-05-20T22:30:22.243Z,71.10
2017-05-20T22:32:50.471Z,71.20
2017-05-20T22:35:18.713Z,71.20
2017-05-20T22:37:46.948Z,71.40
2017-05-20T22:40:15.211Z,71.20
2017-05-20T22:42:43.492Z,71.50
2017-05-20T22:45:11.724Z,71.10
2017-05-20T22:47:39.989Z,71.20
2017-05-20T22:50:08.229Z,71.30
2017-05-20T22:52:36.464Z,71.30
2017-05-20T22:55:04.708Z,71.40
2017-05-20T22:57:32.950Z,71.40
2017-05-20T23:00:01.201Z,71.50
2017-05-20T23:02:29.460Z,71.80
2017-05-20T23:04:57.747Z,71.60
2017-05-20T23:07:26.000Z,72.40
2017-05-20T23:09:54.223Z,72.60
2017-05-20T23:12:22.477Z,72.00
2017-05-20T23:14:50.707Z,72.40
2017-05-20T23:17:18.954Z,72.50
2017-05-20T23:19:47.180Z,72.30
2017-05-20T23:22:15.418Z,72.60
2017-05-20T23:24:43.667Z,72.70
2017-05-20T23:27:11.918Z,73.10
2017-05-20T23:29:40.166Z,72.80
2017-05-20T23:32:08.391Z,73.00
2017-05-20T23:34:36.631Z,72.90
2017-05-20T23:37:04.859Z,73.10
2017-05-20T23:39:33.099Z,73.50
2017-05-20T23:42:00.559Z,73.40
2017-05-20T23:44:28.799Z,73.90
2017-05-20T23:46:57.042Z,74.20
2017-05-20T23:49:25.283Z,74.50
2017-05-20T23:51:53.522Z,74.70
2017-05-20T23:54:21.762Z,74.70
2017-05-20T23:56:50.009Z,74.70
2017-05-20T23:59:18.235Z,75.00
